Aktualne dane pomiarowe

Uwaga, wersja testowa! Automatyczne pobieranie danych za pomocą narzędzi lub skryptów to umożliwiających jest zabronione.

Dane meteo z obszaru Polski uzyskane na podstawie depesz SYNOP pobieranych co godzinę z NWS. Najedź myszką na symbol przedstawiony w tabeli, aby uzyskać informacje co do jego znaczenia. Prosimy pamiętać, że to testowa wersja strony, która jeszcze nie jest ukończona. Stworzono również jest krótki FAQ dotyczący korzystania z tej podstrony Anomalie temperatury w chwili obecnej odniesione są do okresu referencyjnego 1951-2016. Okres ten będzie później zmieniony na 1981-2010. Kliknij ikonę aby pobrać plik CSV. Kliknij ikonę aby wygenerować mapę synoptyczną dla danego terminu.

Wybierz Datę:    

        

Radom (12485)

Dane terminowe dla wybranej stacji. Kliknij datę, aby otrzymać dane z tego terminu dla wszystkich stacji.

TemperaturaZachmurzenieWiatrCiśnienieOpadyPogoda
 Data t td wb tx tn tg rh  Nt Nl Cl Cm Ch ws wd g1 g2 wx mslp ppp ch 24h 12h t ww ww w1 w2  
2019-07-20 23:00:00 17.3 15.1 15.7--- 8710.0wx-2wx---1016.7 994.9 0.1---------
2019-07-20 22:00:00 18.2 15.5 16.3--- 8410.0wx-2wx---1016.9 995.2 0.6---------
2019-07-20 21:00:00 19.1 15.4 16.6--- 7910.0wx-2wx---1016.7 995.1 0.7---------
2019-07-20 20:00:00 19.3 15.6 16.8--- 7910.0wx-wx3wx---1016.4 994.8 0.3---------
2019-07-20 19:00:00 20.3 15.3 16.9--- 7310.0wx-wx2wx---1016.1 994.6 0.1---------
2019-07-20 18:00:00 22.4 16.0 18.1--- 6710.0wx-wxwx2wx---1015.8 994.4 -0.3---------
2019-07-20 17:00:00 24.3 15.3 18.5--- 5710.0wx-wxwx2wx---1015.7 994.5 -0.4---------
2019-07-20 16:00:00 24.7 15.9 19.0--- 5810.0wx-wx4wx---1015.7 994.5 -0.2---------
2019-07-20 15:00:00 22.6 17.7 19.2--- 7410.0wx-wx1----1016.1 994.7 -0.1---------
2019-07-20 14:00:00 21.0 16.0 17.6--- 7310.0wxwxwxwx1----1016.4 994.9 -0.1---wx-w1w2--
2019-07-20 13:00:00 24.9 14.7 18.4--- 5310.0wxwxwxwx1----1015.9 994.7 -0.4---------
2019-07-20 12:00:00 27.0 13.0 18.4--- 4210.0wxwxwxwx3wx---1015.7 994.7 -0.8---------
2019-07-20 11:00:00 26.2 13.4 18.3--- 4510.0wxwxwx3wx---1016.1 995.0 -0.4---------
2019-07-20 10:00:00 25.6 13.8 18.2--- 4810.0wxwxwxwx4wx---1016.2 995.1 -0.1---------
2019-07-20 09:00:00 23.7 14.7 17.9--- 5710.0wx-wx2wx---1016.9 995.6 0.6---------
2019-07-20 08:00:00 21.4 15.0 17.2--- 6710.0wx-wx2wx---1016.9 995.4 0.8---------
2019-07-20 07:00:00 18.6 16.0 16.8--- 8510.0wxwxwxwx2wx---1016.9 995.2 0.7---------
2019-07-20 06:00:00 17.4 15.6 16.1--- 898.0wxwxwxwx2wx---1016.7 995.0 0.8---wx-w1--
2019-07-20 05:00:00 17.9 15.0 15.9--- 8310.0wx-wx2wx---1016.4 994.7 0.5---------
2019-07-20 04:00:00 17.7 14.8 15.7--- 8310.0wx-wx3wx---1016.2 994.5 0.6---------
2019-07-20 03:00:00 16.7 14.5 15.2--- 8710.0wx-wx2wx---1016.0 994.2 0.4---------
2019-07-20 02:00:00 17.0 14.6 15.3--- 8610.0wx-wx3wx---1015.9 994.1 0.2---------
2019-07-20 01:00:00 17.7 13.8 15.1--- 7810.0wx-wx2wx---1015.6 993.9 0.1---------
2019-07-20 00:00:00 18.0 13.6 15.1--- 7610.0wx-wx2wx---1015.5 993.9 0.6---------
2019-07-19 23:00:00 18.5 13.6 15.3--- 7310.0wx-wx2wx---1015.5 993.9 0.6---------
2019-07-19 22:00:00 19.9 12.7 15.3--- 6310.0wx-wx3wx---1015.3 993.8 0.9---------
2019-07-19 21:00:00 18.4 13.1 14.9--- 7110.0wx-wx2wx---1015.1 993.5 1.0---------
2019-07-19 20:00:00 18.6 12.1 14.5--- 6610.0wx-wx3wx---1014.9 993.3 0.8---------
2019-07-19 19:00:00 21.9 12.2 15.9--- 5410.0wx-wx2wx---1014.2 992.8 1.1---------
2019-07-19 18:00:00 22.3 11.7 15.8--- 5110.0wxwxwxwx3wx---1013.9 992.6 1.0---------
2019-07-19 17:00:00 24.0 10.3 15.9--- 4210.0wxwxwxwx7wx---1013.6 992.4 0.6---------
2019-07-19 16:00:00 27.4 6.8 15.8--- 2710.0wxwxwxwx2wx---1012.6 991.7 -0.3---------
2019-07-19 15:00:00 27.6 6.4 15.7--- 2610.0wxwxwxwx3wx---1012.5 991.6 -0.6---------
2019-07-19 14:00:00 28.2 5.8 15.7--- 2410.0wxwxwxwx1----1012.7 991.8 -0.8---------
2019-07-19 13:00:00 27.3 6.2 15.5--- 2610.0wxwxwxwx4wx---1013.0 992.0 -0.8---------
2019-07-19 12:00:00 27.5 5.8 15.4--- 2510.0wxwxwxwx2wx---1013.1 992.2 -0.6---------
2019-07-19 11:00:00 26.9 6.4 15.4--- 2710.0wxwxwxwx3wx---1013.6 992.6 -0.4---------
2019-07-19 10:00:00 25.5 5.7 14.6--- 2810.0wxwxwxwx1----1013.8 992.7 -0.3---------
2019-07-19 09:00:00 25.6 7.7 15.4--- 3210.0wxwxwxwx3wx---1013.9 992.8 -0.1---------
2019-07-19 08:00:00 24.3 9.1 15.5--- 3810.0wx-wx1----1014.2 993.0 0.3---------
2019-07-19 07:00:00 21.8 9.4 14.6--- 4510.0wx-wx1----1014.4 993.0 0.4---------
2019-07-19 06:00:00 18.5 9.8 13.3--- 5710.0wx-wx1----1014.5 992.9 0.3---------
2019-07-19 05:00:00 15.5 9.6 11.9--- 6810.0wx-wx1----1014.5 992.7 0.1---------
2019-07-19 04:00:00 13.1 9.2 10.6--- 7710.0wx-wx1----1014.6 992.6 0.0---------
2019-07-19 03:00:00 11.9 8.4 9.7--- 7910.0wx-wx2----1014.7 992.6 -0.1---------
2019-07-19 02:00:00 11.3 7.8 9.1--- 7910.0wx-wx0----1014.8 992.6 -0.2---------
2019-07-19 01:00:00 12.0 8.3 9.7--- 7810.0wx-wx1----1014.7 992.6 0.0---------
2019-07-19 00:00:00 13.7 8.8 10.7--- 7210.0wx-wx0----1014.7 992.7 0.1---------
1.1 ms

 

Print Friendly, PDF & Email